Time;durP1;ratioP1;P1;durP2;ratioP2;P2;SDS_P1;SDS_P2;PMS_P1;PMS_P2;Temp;Humidity;BMP_temperature;BMP_pressure;BME280_temperature;BME280_humidity;BME280_pressure;Samples;Min_cycle;Max_cycle;Signal;HPM_P1;HPM_P2
2023/02/05 07:00:47;;;;;;;;;13.67;9.67;;;;;;;;6310135;22;46478;-61
2023/02/05 07:03:12;;;;;;;;;11.33;10.33;;;;;;;;6401852;22;45242;-61
2023/02/05 07:05:38;;;;;;;;;11.00;11.00;;;;;;;;6403009;22;46166;-61
2023/02/05 07:08:05;;;;;;;;;12.00;10.67;;;;;;;;6374699;22;45355;-61
2023/02/05 07:10:30;;;;;;;;;12.00;10.33;;;;;;;;6403621;22;45275;-61
2023/02/05 07:12:56;;;;;;;;;10.00;9.33;;;;;;;;6404451;22;45243;-61
2023/02/05 07:15:21;;;;;;;;;12.00;9.67;;;;;;;;6404811;22;46033;-61
2023/02/05 07:17:46;;;;;;;;;13.00;12.00;;;;;;;;6403265;22;45240;-61
2023/02/05 07:20:11;;;;;;;;;11.00;11.00;;;;;;;;6405017;22;45455;-61
2023/02/05 07:22:36;;;;;;;;;13.67;11.67;;;;;;;;6404176;22;45383;-61
2023/02/05 07:25:02;;;;;;;;;12.33;10.67;;;;;;;;6404328;22;45260;-61
2023/02/05 07:27:27;;;;;;;;;11.00;9.33;;;;;;;;6404254;22;45190;-61
2023/02/05 07:29:52;;;;;;;;;15.00;14.00;;;;;;;;6403622;22;45449;-61
2023/02/05 07:32:17;;;;;;;;;15.00;12.33;;;;;;;;6403606;22;45300;-61
2023/02/05 07:34:42;;;;;;;;;13.67;12.67;;;;;;;;6402916;22;45960;-61
2023/02/05 07:37:09;;;;;;;;;13.67;11.67;;;;;;;;6399021;22;45281;-62
2023/02/05 07:39:34;;;;;;;;;12.67;10.33;;;;;;;;6398786;22;45372;-62
2023/02/05 07:42:00;;;;;;;;;15.00;13.67;;;;;;;;6402818;22;45257;-62
2023/02/05 07:44:25;;;;;;;;;11.67;11.00;;;;;;;;6402341;22;46255;-62
2023/02/05 07:46:50;;;;;;;;;11.67;10.67;;;;;;;;6400717;22;45386;-61
2023/02/05 07:49:16;;;;;;;;;13.67;12.67;;;;;;;;6403357;22;45448;-61
2023/02/05 07:51:41;;;;;;;;;16.00;14.67;;;;;;;;6399768;22;45488;-62
2023/02/05 07:54:06;;;;;;;;;12.33;12.33;;;;;;;;6400380;22;45963;-64
2023/02/05 07:56:32;;;;;;;;;16.67;14.33;;;;;;;;6403285;22;45221;-64
2023/02/05 07:58:57;;;;;;;;;17.00;14.67;;;;;;;;6402278;22;45493;-63
2023/02/05 08:01:22;;;;;;;;;17.67;12.33;;;;;;;;6404243;22;45096;-64
2023/02/05 08:03:47;;;;;;;;;16.00;16.00;;;;;;;;6402691;22;45429;-64
2023/02/05 08:06:13;;;;;;;;;18.33;15.00;;;;;;;;6375801;22;45249;-64
2023/02/05 08:08:38;;;;;;;;;16.67;16.00;;;;;;;;6404204;22;45218;-64
2023/02/05 08:11:04;;;;;;;;;16.00;14.67;;;;;;;;6404550;22;45256;-64
2023/02/05 08:13:30;;;;;;;;;20.33;16.33;;;;;;;;6404217;22;47236;-64
2023/02/05 08:15:56;;;;;;;;;21.33;18.00;;;;;;;;6402150;22;45300;-64
2023/02/05 08:18:21;;;;;;;;;22.00;15.00;;;;;;;;6405016;22;45226;-64
2023/02/05 08:20:46;;;;;;;;;19.67;15.33;;;;;;;;6404702;22;45197;-64
2023/02/05 08:23:11;;;;;;;;;18.33;17.00;;;;;;;;6404791;22;45979;-63
2023/02/05 08:25:37;;;;;;;;;21.00;18.67;;;;;;;;6403845;22;45861;-64
2023/02/05 08:28:02;;;;;;;;;18.67;16.67;;;;;;;;6404350;22;45329;-64
2023/02/05 08:30:27;;;;;;;;;16.67;12.33;;;;;;;;6404540;22;45202;-64
2023/02/05 08:32:53;;;;;;;;;19.67;17.33;;;;;;;;6404087;22;45394;-64
2023/02/05 08:35:18;;;;;;;;;20.33;17.67;;;;;;;;6404863;22;45241;-64
2023/02/05 08:37:43;;;;;;;;;26.67;22.33;;;;;;;;6404028;22;45294;-64
2023/02/05 08:40:09;;;;;;;;;23.67;21.67;;;;;;;;6404910;22;45205;-64
2023/02/05 08:42:34;;;;;;;;;22.33;21.00;;;;;;;;6403573;22;45257;-64
2023/02/05 08:44:59;;;;;;;;;18.33;17.67;;;;;;;;6403881;22;45287;-64
2023/02/05 08:47:25;;;;;;;;;20.33;19.67;;;;;;;;6404224;22;45313;-64
2023/02/05 08:49:50;;;;;;;;;22.33;19.00;;;;;;;;6403958;22;45485;-64
2023/02/05 08:52:15;;;;;;;;;21.67;20.00;;;;;;;;6404546;22;46317;-63
2023/02/05 08:54:41;;;;;;;;;25.33;18.33;;;;;;;;6403834;22;45233;-65
2023/02/05 08:57:06;;;;;;;;;20.00;18.33;;;;;;;;6404777;22;45262;-63
2023/02/05 08:59:32;;;;;;;;;20.67;17.67;;;;;;;;6403138;22;45418;-63
2023/02/05 09:01:57;;;;;;;;;23.00;17.33;;;;;;;;6401587;22;45346;-64
2023/02/05 09:04:22;;;;;;;;;22.33;19.00;;;;;;;;6404734;22;45134;-64
2023/02/05 09:06:48;;;;;;;;;21.67;20.33;;;;;;;;6403811;22;45846;-64
2023/02/05 09:09:13;;;;;;;;;19.33;18.00;;;;;;;;6404642;22;45402;-63
2023/02/05 09:11:39;;;;;;;;;20.67;15.00;;;;;;;;6403908;22;46164;-64
2023/02/05 09:14:04;;;;;;;;;19.00;18.00;;;;;;;;6402712;22;45273;-64
2023/02/05 09:16:29;;;;;;;;;17.33;16.33;;;;;;;;6404440;22;45217;-64
2023/02/05 09:18:55;;;;;;;;;18.00;15.00;;;;;;;;6404072;22;45201;-64
2023/02/05 09:21:20;;;;;;;;;24.33;17.67;;;;;;;;6404172;22;46696;-64
2023/02/05 09:23:46;;;;;;;;;19.67;19.00;;;;;;;;6404050;22;45203;-64
2023/02/05 09:26:11;;;;;;;;;15.00;15.00;;;;;;;;6375136;22;45229;-64
2023/02/05 09:28:36;;;;;;;;;13.67;12.67;;;;;;;;6404767;22;45290;-63
2023/02/05 09:31:11;;;;;;;;;15.33;15.33;;;;;;;;6401837;22;46857;-64
2023/02/05 09:33:37;;;;;;;;;20.00;15.67;;;;;;;;6404072;22;45316;-63
2023/02/05 09:36:09;;;;;;;;;15.00;14.00;;;;;;;;6404034;22;45316;-64
2023/02/05 09:38:35;;;;;;;;;13.33;13.00;;;;;;;;6403490;22;45247;-63
2023/02/05 09:41:12;;;;;;;;;16.33;13.00;;;;;;;;6403075;22;46060;-63
2023/02/05 09:43:38;;;;;;;;;18.67;13.00;;;;;;;;6403201;22;45372;-64
2023/02/05 09:46:09;;;;;;;;;14.33;12.67;;;;;;;;6402623;22;45322;-64
2023/02/05 09:48:48;;;;;;;;;13.67;13.33;;;;;;;;6403514;22;45221;-65
2023/02/05 09:51:15;;;;;;;;;13.33;11.00;;;;;;;;6402867;22;46067;-64
2023/02/05 09:53:42;;;;;;;;;11.00;9.00;;;;;;;;6371600;22;45411;-64
2023/02/05 09:56:08;;;;;;;;;12.67;9.00;;;;;;;;6401933;22;45287;-63
2023/02/05 09:58:38;;;;;;;;;6.67;6.67;;;;;;;;6402998;22;45280;-65
2023/02/05 10:01:13;;;;;;;;;7.00;7.00;;;;;;;;6400867;22;46156;-62
2023/02/05 10:03:41;;;;;;;;;7.00;4.67;;;;;;;;6402332;22;45308;-62
2023/02/05 10:06:09;;;;;;;;;3.00;2.00;;;;;;;;6404442;22;45371;-62
2023/02/05 10:08:53;;;;;;;;;2.67;2.67;;;;;;;;6404067;22;45376;-62
2023/02/05 10:11:26;;;;;;;;;1.00;1.00;;;;;;;;6402164;22;46115;-62
2023/02/05 10:13:59;;;;;;;;;5.00;2.00;;;;;;;;6374411;22;45264;-62
2023/02/05 10:16:25;;;;;;;;;2.67;2.67;;;;;;;;6404360;22;45448;-63
2023/02/05 10:18:56;;;;;;;;;2.67;2.67;;;;;;;;6403180;22;45423;-62
2023/02/05 10:21:40;;;;;;;;;3.33;2.00;;;;;;;;6404724;22;46312;-62
2023/02/05 10:24:05;;;;;;;;;2.00;2.00;;;;;;;;6374823;22;45132;-62
2023/02/05 10:26:36;;;;;;;;;2.00;2.00;;;;;;;;6404474;22;45206;-62
2023/02/05 10:29:02;;;;;;;;;3.00;3.00;;;;;;;;6403345;22;45238;-63
2023/02/05 10:31:40;;;;;;;;;2.00;2.00;;;;;;;;6403500;22;47439;-62
2023/02/05 10:34:11;;;;;;;;;3.33;2.00;;;;;;;;6403745;22;45194;-62
2023/02/05 10:36:37;;;;;;;;;2.67;2.67;;;;;;;;6404317;22;45232;-63
2023/02/05 10:39:10;;;;;;;;;3.67;2.00;;;;;;;;6403214;22;45189;-63
2023/02/05 10:41:42;;;;;;;;;1.33;1.33;;;;;;;;6404291;22;46158;-63
2023/02/05 10:44:19;;;;;;;;;4.67;1.00;;;;;;;;6400869;22;45422;-63
2023/02/05 10:46:50;;;;;;;;;1.00;1.00;;;;;;;;6403683;22;45228;-63
2023/02/05 10:49:21;;;;;;;;;1.33;1.33;;;;;;;;6403923;22;45264;-62
2023/02/05 10:51:46;;;;;;;;;1.67;1.00;;;;;;;;6402909;22;46231;-62
2023/02/05 10:54:16;;;;;;;;;2.00;2.00;;;;;;;;6404228;22;45265;-62
2023/02/05 10:56:42;;;;;;;;;5.00;1.00;;;;;;;;6403113;22;45186;-62
2023/02/05 10:59:14;;;;;;;;;2.33;2.33;;;;;;;;6401470;22;45464;-63
2023/02/05 11:01:40;;;;;;;;;2.33;1.00;;;;;;;;6403728;22;45356;-63
2023/02/05 11:04:09;;;;;;;;;1.00;1.00;;;;;;;;6403765;22;45220;-63
2023/02/05 11:06:36;;;;;;;;;2.33;1.00;;;;;;;;6404545;22;45308;-63
2023/02/05 11:09:02;;;;;;;;;1.33;0.00;;;;;;;;6403622;22;45206;-63
2023/02/05 11:11:29;;;;;;;;;5.00;2.00;;;;;;;;6403947;22;45630;-63
2023/02/05 11:14:03;;;;;;;;;4.00;1.00;;;;;;;;6402560;22;45231;-62
2023/02/05 11:16:40;;;;;;;;;1.00;1.00;;;;;;;;6403537;22;45236;-62
2023/02/05 11:19:14;;;;;;;;;2.00;1.00;;;;;;;;6374535;22;45310;-62
2023/02/05 11:21:47;;;;;;;;;2.00;1.00;;;;;;;;6403074;22;45142;-62
2023/02/05 11:24:23;;;;;;;;;3.00;2.00;;;;;;;;6403490;22;45178;-62
2023/02/05 11:26:49;;;;;;;;;5.67;2.67;;;;;;;;6402956;22;45268;-62
2023/02/05 11:29:22;;;;;;;;;7.67;3.00;;;;;;;;6403268;22;45284;-63
2023/02/05 11:31:48;;;;;;;;;2.00;2.00;;;;;;;;6402888;22;45242;-63
2023/02/05 11:34:15;;;;;;;;;3.00;1.00;;;;;;;;6403311;22;45213;-62
2023/02/05 11:36:51;;;;;;;;;4.33;2.00;;;;;;;;6402321;22;45248;-65
2023/02/05 11:39:34;;;;;;;;;2.00;1.00;;;;;;;;6402303;22;45283;-62
2023/02/05 11:42:08;;;;;;;;;2.33;1.00;;;;;;;;6402227;22;47065;-62
2023/02/05 11:44:35;;;;;;;;;3.00;1.00;;;;;;;;6402688;22;45290;-61
2023/02/05 11:47:01;;;;;;;;;2.67;1.00;;;;;;;;6402871;22;45129;-61
2023/02/05 11:49:31;;;;;;;;;4.67;2.67;;;;;;;;6403316;22;45313;-62
2023/02/05 11:51:57;;;;;;;;;3.33;3.00;;;;;;;;6403334;22;46144;-61
2023/02/05 11:54:26;;;;;;;;;0.67;0.67;;;;;;;;6404400;22;45347;-63
2023/02/05 11:57:00;;;;;;;;;1.00;1.00;;;;;;;;6403827;22;45270;-62
2023/02/05 11:59:26;;;;;;;;;1.00;1.00;;;;;;;;6404857;22;45458;-61
2023/02/05 12:01:51;;;;;;;;;1.67;1.33;;;;;;;;6403356;22;46371;-62
2023/02/05 12:04:18;;;;;;;;;1.67;0.33;;;;;;;;6404802;22;45190;-62
2023/02/05 12:06:47;;;;;;;;;2.00;2.00;;;;;;;;6402645;22;45396;-64
2023/02/05 12:09:15;;;;;;;;;1.00;1.00;;;;;;;;6402920;22;45278;-62
2023/02/05 12:14:31;;;;;;;;;3.67;1.00;;;;;;;;6404099;22;45184;-62
2023/02/05 12:17:02;;;;;;;;;3.00;1.00;;;;;;;;6402903;22;45266;-62
2023/02/05 12:19:32;;;;;;;;;2.67;2.00;;;;;;;;6404606;22;45355;-63
2023/02/05 12:22:16;;;;;;;;;5.67;3.33;;;;;;;;6374695;22;46005;-63
2023/02/05 12:24:46;;;;;;;;;1.00;1.00;;;;;;;;6402320;22;45273;-61
2023/02/05 12:27:11;;;;;;;;;2.67;2.67;;;;;;;;6404441;22;45235;-62
2023/02/05 12:29:36;;;;;;;;;5.00;2.00;;;;;;;;6404000;22;45469;-63
2023/02/05 12:32:04;;;;;;;;;2.50;2.50;;;;;;;;6403717;22;45308;-65
2023/02/05 12:34:33;;;;;;;;;29.67;29.33;;;;;;;;6375218;22;45336;-61
2023/02/05 12:36:59;;;;;;;;;3.67;1.00;;;;;;;;6404653;22;45473;-61
2023/02/05 12:39:40;;;;;;;;;0.00;0.00;;;;;;;;6404072;22;45513;-61
2023/02/05 12:42:22;;;;;;;;;3.00;2.00;;;;;;;;6403596;22;46849;-63
2023/02/05 12:44:47;;;;;;;;;3.00;2.00;;;;;;;;6402155;22;45270;-62
2023/02/05 12:47:31;;;;;;;;;1.00;1.00;;;;;;;;6403432;22;45347;-63
2023/02/05 12:50:09;;;;;;;;;1.00;1.00;;;;;;;;6374882;22;45223;-62
2023/02/05 12:52:50;;;;;;;;;1.33;1.00;;;;;;;;6404113;22;46184;-62
2023/02/05 12:55:15;;;;;;;;;3.00;2.00;;;;;;;;6403453;22;45274;-62
2023/02/05 12:57:43;;;;;;;;;3.00;2.00;;;;;;;;6403465;22;45277;-62
2023/02/05 13:00:18;;;;;;;;;3.00;3.00;;;;;;;;6404214;22;45364;-62
2023/02/05 13:03:05;;;;;;;;;11.67;11.00;;;;;;;;6403276;22;46185;-61
2023/02/05 13:05:33;;;;;;;;;16.00;14.67;;;;;;;;6404079;22;45247;-61
2023/02/05 13:07:58;;;;;;;;;19.33;18.00;;;;;;;;6402902;22;45309;-61
2023/02/05 13:10:27;;;;;;;;;22.75;21.50;;;;;;;;6403391;22;45248;-61
2023/02/05 13:12:56;;;;;;;;;12.67;11.00;;;;;;;;6402565;22;47007;-62
2023/02/05 13:15:24;;;;;;;;;2.00;2.00;;;;;;;;6404543;22;45301;-62
2023/02/05 13:17:49;;;;;;;;;7.67;1.00;;;;;;;;6403726;22;45346;-61
2023/02/05 13:28:38;;;;;;;;;4.00;0.00;;;;;;;;6405026;22;45244;-61
2023/02/05 13:28:46;;;;;;;;;3.00;2.00;;;;;;;;6400744;22;45339;-61
2023/02/05 13:31:17;;;;;;;;;1.00;0.67;;;;;;;;6402443;22;45482;-62
2023/02/05 13:33:43;;;;;;;;;3.33;2.00;;;;;;;;6403378;22;45408;-62
2023/02/05 13:36:24;;;;;;;;;5.33;0.67;;;;;;;;6402766;22;45328;-62
2023/02/05 13:38:49;;;;;;;;;2.00;0.67;;;;;;;;6373958;22;45182;-61
2023/02/05 13:41:23;;;;;;;;;1.00;1.00;;;;;;;;6402762;22;45368;-62
2023/02/05 13:43:54;;;;;;;;;1.33;1.33;;;;;;;;6403149;22;46016;-61
2023/02/05 13:46:28;;;;;;;;;0.67;0.00;;;;;;;;6401849;22;45308;-62
2023/02/05 13:48:53;;;;;;;;;3.00;1.67;;;;;;;;6403562;22;45428;-62
2023/02/05 13:51:19;;;;;;;;;4.00;1.00;;;;;;;;6404009;22;45454;-62
2023/02/05 13:53:53;;;;;;;;;3.25;1.00;;;;;;;;6403824;22;45410;-63
2023/02/05 13:56:18;;;;;;;;;3.00;1.00;;;;;;;;6404670;22;45324;-63
2023/02/05 13:58:51;;;;;;;;;2.33;1.00;;;;;;;;6402477;22;45360;-62
2023/02/05 14:01:22;;;;;;;;;3.00;1.00;;;;;;;;6401791;22;45437;-62
2023/02/05 14:04:02;;;;;;;;;2.00;2.00;;;;;;;;6402619;22;46139;-62
2023/02/05 14:06:29;;;;;;;;;1.33;1.00;;;;;;;;6403681;22;45272;-62
2023/02/05 14:08:57;;;;;;;;;5.00;2.00;;;;;;;;6402890;22;45284;-62
2023/02/05 14:11:23;;;;;;;;;1.00;1.00;;;;;;;;6403733;22;45257;-62
2023/02/05 14:14:23;;;;;;;;;4.00;2.00;;;;;;;;6401988;22;45221;-62
2023/02/05 14:16:49;;;;;;;;;4.00;2.00;;;;;;;;6273294;22;45497;-62
2023/02/05 14:19:16;;;;;;;;;2.33;2.00;;;;;;;;6374267;22;45324;-62
2023/02/05 14:21:44;;;;;;;;;2.00;0.67;;;;;;;;6403404;22;45298;-62
2023/02/05 14:24:28;;;;;;;;;3.00;1.00;;;;;;;;6403290;22;45336;-62
2023/02/05 14:26:59;;;;;;;;;8.33;3.00;;;;;;;;6403023;22;45280;-62
2023/02/05 14:29:44;;;;;;;;;4.33;1.00;;;;;;;;6402984;22;45323;-62
2023/02/05 14:32:10;;;;;;;;;3.00;1.00;;;;;;;;6403528;22;45282;-62
2023/02/05 14:34:35;;;;;;;;;2.00;2.00;;;;;;;;6402322;22;46171;-62
2023/02/05 14:37:00;;;;;;;;;1.00;0.00;;;;;;;;6402112;22;45304;-62
2023/02/05 14:39:35;;;;;;;;;4.00;2.00;;;;;;;;6403725;22;45545;-62
2023/02/05 14:42:04;;;;;;;;;3.00;0.00;;;;;;;;6403310;22;45594;-62
2023/02/05 14:44:31;;;;;;;;;3.33;1.00;;;;;;;;6403223;22;45260;-61
2023/02/05 14:47:02;;;;;;;;;3.00;1.00;;;;;;;;6403356;22;45208;-62
2023/02/05 14:49:35;;;;;;;;;2.00;1.00;;;;;;;;6403630;22;45378;-62
2023/02/05 14:52:02;;;;;;;;;3.00;1.00;;;;;;;;6401015;22;45732;-61
2023/02/05 14:54:43;;;;;;;;;2.00;2.00;;;;;;;;6403488;22;45285;-62
2023/02/05 14:57:17;;;;;;;;;2.00;2.00;;;;;;;;6403058;22;45257;-62
2023/02/05 14:59:49;;;;;;;;;2.00;2.00;;;;;;;;6401045;22;45385;-61
2023/02/05 15:02:34;;;;;;;;;7.67;2.00;;;;;;;;6404024;22;45178;-62
2023/02/05 15:05:01;;;;;;;;;3.33;2.67;;;;;;;;6403661;22;45888;-61
2023/02/05 15:07:27;;;;;;;;;3.67;2.00;;;;;;;;6402339;22;45231;-61
2023/02/05 15:09:56;;;;;;;;;2.00;1.00;;;;;;;;6402522;22;45253;-61
2023/02/05 15:12:29;;;;;;;;;2.67;1.67;;;;;;;;6401496;22;45334;-62
2023/02/05 15:14:56;;;;;;;;;3.00;2.00;;;;;;;;6401992;22;47123;-62
2023/02/05 15:17:27;;;;;;;;;5.67;3.33;;;;;;;;6402622;22;45289;-60
2023/02/05 15:19:54;;;;;;;;;3.00;2.00;;;;;;;;6401996;22;45482;-60
2023/02/05 15:22:27;;;;;;;;;2.00;2.00;;;;;;;;6402509;22;45250;-60
2023/02/05 15:24:53;;;;;;;;;3.00;2.00;;;;;;;;6403508;22;45236;-60
2023/02/05 15:27:38;;;;;;;;;4.33;1.00;;;;;;;;6403591;22;45319;-60
2023/02/05 15:30:05;;;;;;;;;8.00;2.00;;;;;;;;6402661;22;45281;-60
2023/02/05 15:32:43;;;;;;;;;1.67;1.67;;;;;;;;6403819;22;45490;-60
2023/02/05 15:35:15;;;;;;;;;2.00;0.67;;;;;;;;6404276;22;46392;-60
2023/02/05 15:38:15;;;;;;;;;1.67;1.67;;;;;;;;6403241;22;45311;-60
2023/02/05 15:40:41;;;;;;;;;3.33;2.67;;;;;;;;6255659;22;45407;-60
2023/02/05 15:43:13;;;;;;;;;2.00;2.00;;;;;;;;6374309;22;45131;-60
2023/02/05 15:45:43;;;;;;;;;5.67;4.00;;;;;;;;6401967;22;46297;-60
2023/02/05 15:48:08;;;;;;;;;5.67;3.00;;;;;;;;6402343;22;45292;-60
2023/02/05 15:50:35;;;;;;;;;2.00;2.00;;;;;;;;6403859;22;45378;-60
2023/02/05 15:53:03;;;;;;;;;2.33;2.00;;;;;;;;6403251;22;45391;-60
2023/02/05 15:55:28;;;;;;;;;3.67;2.67;;;;;;;;6402602;22;45596;-60
2023/02/05 15:58:00;;;;;;;;;2.00;2.00;;;;;;;;6403044;22;45264;-60
2023/02/05 16:00:27;;;;;;;;;5.00;2.00;;;;;;;;6403172;22;45494;-60
2023/02/05 16:02:58;;;;;;;;;5.33;3.33;;;;;;;;6401479;22;45540;-60
2023/02/05 16:05:24;;;;;;;;;3.00;2.00;;;;;;;;6402943;22;46253;-60
2023/02/05 16:07:57;;;;;;;;;5.67;2.00;;;;;;;;6403221;22;45346;-60
2023/02/05 16:10:24;;;;;;;;;3.00;2.00;;;;;;;;6374075;22;45373;-58
2023/02/05 16:12:59;;;;;;;;;3.00;2.00;;;;;;;;6403007;22;45305;-59
2023/02/05 16:15:29;;;;;;;;;5.33;2.00;;;;;;;;6403813;22;46131;-59
2023/02/05 16:17:58;;;;;;;;;7.00;4.00;;;;;;;;6401660;22;45238;-59
2023/02/05 16:20:28;;;;;;;;;2.00;2.00;;;;;;;;6401977;22;45398;-60
2023/02/05 16:22:54;;;;;;;;;2.00;2.00;;;;;;;;6403522;22;45298;-61
2023/02/05 16:25:22;;;;;;;;;3.67;1.00;;;;;;;;6400766;22;45304;-60
2023/02/05 16:27:48;;;;;;;;;3.67;3.00;;;;;;;;6402675;22;45388;-60
2023/02/05 16:30:43;;;;;;;;;4.33;3.00;;;;;;;;6401929;22;45538;-60
2023/02/05 16:33:31;;;;;;;;;8.67;6.00;;;;;;;;6373182;22;45386;-59
2023/02/05 16:35:57;;;;;;;;;4.00;4.00;;;;;;;;6401405;22;46138;-60
2023/02/05 16:38:24;;;;;;;;;5.33;3.00;;;;;;;;6403458;22;45216;-59
2023/02/05 16:40:51;;;;;;;;;6.00;5.67;;;;;;;;6402094;22;45226;-59
2023/02/05 16:43:19;;;;;;;;;4.00;3.00;;;;;;;;6404262;22;45285;-60
2023/02/05 16:46:02;;;;;;;;;4.00;2.00;;;;;;;;6403351;22;46066;-59
2023/02/05 16:48:28;;;;;;;;;7.33;5.00;;;;;;;;6403743;22;45663;-59
2023/02/05 16:50:55;;;;;;;;;5.67;2.00;;;;;;;;6374811;22;45395;-59
2023/02/05 16:53:24;;;;;;;;;12.00;5.00;;;;;;;;6404495;22;45267;-59
2023/02/05 16:55:57;;;;;;;;;3.67;3.33;;;;;;;;6403120;22;46051;-59
2023/02/05 16:58:23;;;;;;;;;4.67;4.00;;;;;;;;6403979;22;45257;-61
2023/02/05 17:00:59;;;;;;;;;5.00;3.00;;;;;;;;6402884;22;45301;-60
2023/02/05 17:03:27;;;;;;;;;2.00;2.00;;;;;;;;6403370;22;45444;-59
2023/02/05 17:05:54;;;;;;;;;4.33;4.33;;;;;;;;6401999;22;46147;-59
2023/02/05 17:08:27;;;;;;;;;6.00;5.00;;;;;;;;6403308;22;45273;-58
2023/02/05 17:10:54;;;;;;;;;6.00;2.00;;;;;;;;6374744;22;45230;-60
2023/02/05 17:13:29;;;;;;;;;5.00;4.00;;;;;;;;6403481;22;45368;-60
2023/02/05 17:15:54;;;;;;;;;4.00;2.00;;;;;;;;6402279;22;45492;-60
2023/02/05 17:18:29;;;;;;;;;4.00;4.00;;;;;;;;6402448;22;45382;-60
2023/02/05 17:21:13;;;;;;;;;7.67;5.00;;;;;;;;6402153;22;45340;-61
2023/02/05 17:23:38;;;;;;;;;12.33;4.00;;;;;;;;6402888;22;45269;-62
2023/02/05 17:26:04;;;;;;;;;6.00;5.33;;;;;;;;6400728;22;45381;-62
2023/02/05 17:28:29;;;;;;;;;7.33;5.67;;;;;;;;6403485;22;45495;-61
2023/02/05 17:30:56;;;;;;;;;11.33;6.00;;;;;;;;6403598;22;45308;-62
2023/02/05 17:33:26;;;;;;;;;12.33;5.00;;;;;;;;6401626;22;45740;-63
2023/02/05 17:35:51;;;;;;;;;7.33;5.00;;;;;;;;6401002;22;45557;-60
2023/02/05 17:38:16;;;;;;;;;7.00;7.00;;;;;;;;6402481;22;45307;-61
2023/02/05 17:40:42;;;;;;;;;6.33;5.33;;;;;;;;6400007;22;45425;-61
2023/02/05 17:43:08;;;;;;;;;6.33;5.00;;;;;;;;6400872;22;45692;-60
2023/02/05 17:45:35;;;;;;;;;7.33;6.67;;;;;;;;6399796;22;45312;-60
2023/02/05 17:48:00;;;;;;;;;10.33;5.33;;;;;;;;6401513;22;45387;-60
2023/02/05 17:50:25;;;;;;;;;7.00;4.33;;;;;;;;6402779;22;45520;-60
2023/02/05 17:52:51;;;;;;;;;9.33;4.00;;;;;;;;6401977;22;45319;-60
2023/02/05 17:55:17;;;;;;;;;4.67;4.00;;;;;;;;6402623;22;45714;-61
2023/02/05 17:57:43;;;;;;;;;8.00;6.00;;;;;;;;6399526;22;45418;-62
2023/02/05 18:00:13;;;;;;;;;6.00;5.33;;;;;;;;6401989;22;45517;-62
2023/02/05 18:02:38;;;;;;;;;11.00;6.00;;;;;;;;6402259;22;45308;-63
2023/02/05 18:05:04;;;;;;;;;9.00;5.00;;;;;;;;6400208;22;46993;-62
2023/02/05 18:07:31;;;;;;;;;8.67;4.33;;;;;;;;6372921;22;45341;-62
2023/02/05 18:09:58;;;;;;;;;2.33;2.00;;;;;;;;6402536;22;45249;-64
2023/02/05 18:12:23;;;;;;;;;5.67;4.00;;;;;;;;6400779;22;45282;-62
2023/02/05 18:14:49;;;;;;;;;8.00;4.00;;;;;;;;6401546;22;46124;-64
2023/02/05 18:17:14;;;;;;;;;11.67;6.00;;;;;;;;6401918;22;45579;-63
2023/02/05 18:19:39;;;;;;;;;11.33;7.00;;;;;;;;6402150;22;45411;-63
2023/02/05 18:22:05;;;;;;;;;7.00;6.00;;;;;;;;6401880;22;45261;-63
2023/02/05 18:24:30;;;;;;;;;7.00;5.00;;;;;;;;6373570;22;46642;-63
2023/02/05 18:26:55;;;;;;;;;7.33;5.67;;;;;;;;6401795;22;45344;-63
2023/02/05 18:29:21;;;;;;;;;7.33;3.67;;;;;;;;6401486;22;45202;-63
2023/02/05 18:31:46;;;;;;;;;9.67;6.00;;;;;;;;6402127;22;45214;-63
2023/02/05 18:34:12;;;;;;;;;11.67;6.00;;;;;;;;6401825;22;45341;-63
2023/02/05 18:36:37;;;;;;;;;7.67;6.33;;;;;;;;6403010;22;45273;-63
2023/02/05 18:39:02;;;;;;;;;8.33;6.00;;;;;;;;6402041;22;45486;-63
2023/02/05 18:41:27;;;;;;;;;9.33;7.00;;;;;;;;6402491;22;45535;-63
2023/02/05 18:43:53;;;;;;;;;9.00;6.00;;;;;;;;6401049;22;46012;-63
2023/02/05 18:46:19;;;;;;;;;11.33;7.67;;;;;;;;6372523;22;45716;-62
2023/02/05 18:48:45;;;;;;;;;7.33;6.67;;;;;;;;6400402;22;45391;-63
2023/02/05 18:51:11;;;;;;;;;15.00;6.33;;;;;;;;6400417;22;45320;-62
2023/02/05 18:53:38;;;;;;;;;13.33;6.00;;;;;;;;6396140;22;47282;-62
2023/02/05 18:56:07;;;;;;;;;8.67;6.33;;;;;;;;6399964;22;45351;-62
2023/02/05 18:58:33;;;;;;;;;7.00;6.33;;;;;;;;6400482;22;45391;-62
2023/02/05 19:01:06;;;;;;;;;10.67;10.33;;;;;;;;6396949;22;45402;-62
2023/02/05 19:03:31;;;;;;;;;9.00;6.67;;;;;;;;6401397;22;46127;-62
2023/02/05 19:06:01;;;;;;;;;7.67;5.00;;;;;;;;6399718;22;45179;-63
2023/02/05 19:08:27;;;;;;;;;4.00;4.00;;;;;;;;6400227;22;45330;-62
2023/02/05 19:10:52;;;;;;;;;11.00;7.00;;;;;;;;6399970;22;45359;-62
2023/02/05 19:13:17;;;;;;;;;8.33;4.33;;;;;;;;6401632;22;45324;-62
2023/02/05 19:15:42;;;;;;;;;11.00;9.33;;;;;;;;6372116;22;45686;-62
2023/02/05 19:18:07;;;;;;;;;13.67;7.67;;;;;;;;6401066;22;45359;-63
2023/02/05 19:20:33;;;;;;;;;6.33;6.00;;;;;;;;6401150;22;45391;-63
2023/02/05 19:22:58;;;;;;;;;7.00;6.33;;;;;;;;6401107;22;45385;-63
2023/02/05 19:25:23;;;;;;;;;6.67;4.00;;;;;;;;6372171;22;45397;-63
2023/02/05 19:27:48;;;;;;;;;11.00;6.33;;;;;;;;6400677;22;45601;-63
2023/02/05 19:30:14;;;;;;;;;10.67;7.33;;;;;;;;6401778;22;45336;-63
2023/02/05 19:32:39;;;;;;;;;8.00;6.00;;;;;;;;6399123;22;45650;-62
2023/02/05 19:35:04;;;;;;;;;13.00;10.33;;;;;;;;6401072;22;45263;-61
2023/02/05 19:37:30;;;;;;;;;10.00;9.33;;;;;;;;6402311;22;45327;-63
2023/02/05 19:39:55;;;;;;;;;12.67;7.67;;;;;;;;6401146;22;45503;-63
2023/02/05 19:42:21;;;;;;;;;10.67;8.33;;;;;;;;6399795;22;45563;-63
2023/02/05 19:44:46;;;;;;;;;13.33;6.00;;;;;;;;6400097;22;45303;-63
2023/02/05 19:47:12;;;;;;;;;9.67;4.67;;;;;;;;6400713;22;45298;-63
2023/02/05 19:49:37;;;;;;;;;12.00;9.33;;;;;;;;6371935;22;45361;-63
2023/02/05 19:52:02;;;;;;;;;12.33;8.00;;;;;;;;6400485;22;45198;-62
2023/02/05 19:54:28;;;;;;;;;11.33;7.67;;;;;;;;6401045;22;45376;-63
2023/02/05 19:56:53;;;;;;;;;12.33;8.67;;;;;;;;6401528;22;45336;-62
2023/02/05 19:59:19;;;;;;;;;7.33;7.33;;;;;;;;6401303;22;45266;-63
2023/02/05 20:01:45;;;;;;;;;5.33;5.33;;;;;;;;6396828;22;47018;-63
2023/02/05 20:04:15;;;;;;;;;11.00;6.33;;;;;;;;6401300;22;45640;-63
2023/02/05 20:06:41;;;;;;;;;10.33;7.67;;;;;;;;6371488;22;45290;-63
2023/02/05 20:09:09;;;;;;;;;9.33;4.67;;;;;;;;6401603;22;45320;-62
2023/02/05 20:11:35;;;;;;;;;12.00;9.00;;;;;;;;6403009;22;45294;-64
2023/02/05 20:14:00;;;;;;;;;16.67;6.00;;;;;;;;6401949;22;45288;-63
2023/02/05 20:16:26;;;;;;;;;8.67;5.33;;;;;;;;6403545;22;45659;-63
2023/02/05 20:18:52;;;;;;;;;11.00;8.00;;;;;;;;6403405;22;45285;-63
2023/02/05 20:21:18;;;;;;;;;10.67;6.00;;;;;;;;6403037;22;46209;-63
2023/02/05 20:23:43;;;;;;;;;14.33;8.00;;;;;;;;6401896;22;46254;-63
2023/02/05 20:26:09;;;;;;;;;5.00;4.67;;;;;;;;6403356;22;45260;-63
2023/02/05 20:31:31;;;;;;;;;3.00;3.00;;;;;;;;6402999;22;45316;-63
2023/02/05 20:31:32;;;;;;;;;13.33;6.00;;;;;;;;6401888;22;46045;-63
2023/02/05 20:34:02;;;;;;;;;9.67;5.67;;;;;;;;6396258;22;45427;-63
2023/02/05 20:36:27;;;;;;;;;13.33;11.00;;;;;;;;6398202;22;45458;-63
2023/02/05 20:38:56;;;;;;;;;10.00;8.00;;;;;;;;6402461;22;45309;-63
2023/02/05 20:41:21;;;;;;;;;10.00;5.67;;;;;;;;6401790;22;46942;-62
2023/02/05 20:43:47;;;;;;;;;6.00;6.00;;;;;;;;6371402;22;45443;-63
2023/02/05 20:46:13;;;;;;;;;11.33;8.00;;;;;;;;6400704;22;45651;-63
2023/02/05 20:48:38;;;;;;;;;11.00;6.00;;;;;;;;6401481;22;45766;-63
2023/02/05 20:51:07;;;;;;;;;9.33;9.33;;;;;;;;6398992;22;46889;-63
2023/02/05 20:53:32;;;;;;;;;6.33;5.33;;;;;;;;6400833;22;45530;-62
2023/02/05 20:56:02;;;;;;;;;9.67;5.67;;;;;;;;6400441;22;45711;-61
2023/02/05 20:58:27;;;;;;;;;7.00;6.00;;;;;;;;6400575;22;45615;-62
2023/02/05 21:00:52;;;;;;;;;11.00;9.33;;;;;;;;6399537;22;46307;-62
2023/02/05 21:03:17;;;;;;;;;12.67;5.33;;;;;;;;6401981;22;45813;-62
2023/02/05 21:05:43;;;;;;;;;11.67;6.33;;;;;;;;6400600;22;45562;-63
2023/02/05 21:08:08;;;;;;;;;9.00;7.67;;;;;;;;6400885;22;45789;-62
2023/02/05 21:10:34;;;;;;;;;12.00;6.67;;;;;;;;6398336;22;46943;-62
2023/02/05 21:12:59;;;;;;;;;9.00;4.00;;;;;;;;6400167;22;45388;-63
2023/02/05 21:15:25;;;;;;;;;9.33;7.33;;;;;;;;6400990;22;45441;-62
2023/02/05 21:17:50;;;;;;;;;4.67;4.67;;;;;;;;6399616;22;45966;-62
2023/02/05 21:20:15;;;;;;;;;5.33;4.00;;;;;;;;6401502;22;46232;-62
2023/02/05 21:22:41;;;;;;;;;13.67;8.00;;;;;;;;6401060;22;45415;-63
2023/02/05 21:25:06;;;;;;;;;11.00;5.67;;;;;;;;6402322;22;45458;-62
2023/02/05 21:27:31;;;;;;;;;12.00;8.33;;;;;;;;6401470;22;45329;-63
2023/02/05 21:29:57;;;;;;;;;6.00;5.33;;;;;;;;6400242;22;45402;-63
2023/02/05 21:32:22;;;;;;;;;8.67;5.33;;;;;;;;6400486;22;45369;-62
2023/02/05 21:34:47;;;;;;;;;10.33;6.33;;;;;;;;6401104;22;45368;-63
2023/02/05 21:37:12;;;;;;;;;11.00;5.00;;;;;;;;6402041;22;45172;-62
2023/02/05 21:39:39;;;;;;;;;14.33;7.00;;;;;;;;6402078;22;45375;-62
2023/02/05 21:42:04;;;;;;;;;6.67;5.00;;;;;;;;6400897;22;45368;-62
2023/02/05 21:44:30;;;;;;;;;9.33;5.67;;;;;;;;6400502;22;45324;-62
2023/02/05 21:46:55;;;;;;;;;11.00;9.00;;;;;;;;6401990;22;45303;-63
2023/02/05 21:49:20;;;;;;;;;4.67;2.00;;;;;;;;6395537;22;45986;-63
2023/02/05 21:51:47;;;;;;;;;5.00;4.33;;;;;;;;6397283;22;45638;-63